Stanfield, Oregon
Current Conditions -  °F | °C
As of 1:53 AM on Friday 24 Oct 2014 (Local Time) from KHRI Reporting Station
Few Clouds Few Clouds  
Wind Chill: 46°   Ceiling: Unl
Heat Index: 48°   Visibility: 10mi
Dew Point: 44°   Wind: 5mph
Humidity: 86%   Direction: 120°ESE
Pressure: 30.04"   Gusts: NA
Location:  45.78°N, 119.22°W
Report Text: KHRI 240853Z AUTO 12004KT 10SM FEW070 09/07 A3004 RMK AO2 SLP171 T00890067 51008
Loading
Personal Weather Stations






























Interactive Weather Map
Tropical Storm Tracking
New forecast layout! Learn more

10-Day Weather Forecast

Advertisements
Track Severe Weather on mobile